sensor_id;sensor_type;location;lat;lon;timestamp;P1;durP1;ratioP1;P2;durP2;ratioP2
55150;SDS011;41041;43.162;20.538;2023-07-09T00:01:27;7.90;;;3.42;;
55150;SDS011;41041;43.162;20.538;2023-07-09T00:03:53;6.85;;;3.60;;
55150;SDS011;41041;43.162;20.538;2023-07-09T00:06:19;7.55;;;3.78;;
55150;SDS011;41041;43.162;20.538;2023-07-09T00:08:45;6.32;;;3.80;;
55150;SDS011;41041;43.162;20.538;2023-07-09T00:17:01;6.95;;;3.60;;
55150;SDS011;41041;43.162;20.538;2023-07-09T00:19:28;7.05;;;3.60;;
55150;SDS011;41041;43.162;20.538;2023-07-09T00:21:54;7.55;;;3.50;;
55150;SDS011;41041;43.162;20.538;2023-07-09T00:24:20;7.00;;;3.72;;
55150;SDS011;41041;43.162;20.538;2023-07-09T00:26:46;6.63;;;3.80;;
55150;SDS011;41041;43.162;20.538;2023-07-09T00:29:13;6.93;;;3.45;;
55150;SDS011;41041;43.162;20.538;2023-07-09T00:31:39;5.72;;;3.58;;
55150;SDS011;41041;43.162;20.538;2023-07-09T00:34:09;6.45;;;3.70;;
55150;SDS011;41041;43.162;20.538;2023-07-09T00:36:39;5.07;;;3.20;;
55150;SDS011;41041;43.162;20.538;2023-07-09T00:39:11;6.47;;;4.00;;
55150;SDS011;41041;43.162;20.538;2023-07-09T00:41:40;7.20;;;3.65;;
55150;SDS011;41041;43.162;20.538;2023-07-09T00:49:27;7.75;;;3.30;;
55150;SDS011;41041;43.162;20.538;2023-07-09T00:51:54;5.63;;;3.42;;
55150;SDS011;41041;43.162;20.538;2023-07-09T00:54:24;6.50;;;3.33;;
55150;SDS011;41041;43.162;20.538;2023-07-09T00:56:55;5.72;;;3.40;;
55150;SDS011;41041;43.162;20.538;2023-07-09T00:59:24;6.22;;;3.67;;
55150;SDS011;41041;43.162;20.538;2023-07-09T01:01:50;8.95;;;2.95;;
55150;SDS011;41041;43.162;20.538;2023-07-09T01:04:18;7.93;;;3.53;;
55150;SDS011;41041;43.162;20.538;2023-07-09T01:06:53;8.15;;;3.13;;
55150;SDS011;41041;43.162;20.538;2023-07-09T01:09:20;6.95;;;3.20;;
55150;SDS011;41041;43.162;20.538;2023-07-09T01:11:47;10.43;;;3.75;;
55150;SDS011;41041;43.162;20.538;2023-07-09T01:17:01;6.20;;;3.63;;
55150;SDS011;41041;43.162;20.538;2023-07-09T01:19:36;6.13;;;3.22;;
55150;SDS011;41041;43.162;20.538;2023-07-09T01:22:08;4.88;;;3.08;;
55150;SDS011;41041;43.162;20.538;2023-07-09T01:27:32;7.40;;;3.70;;
55150;SDS011;41041;43.162;20.538;2023-07-09T01:29:59;7.30;;;3.47;;
55150;SDS011;41041;43.162;20.538;2023-07-09T01:32:26;6.13;;;3.13;;
55150;SDS011;41041;43.162;20.538;2023-07-09T01:34:58;6.85;;;3.40;;
55150;SDS011;41041;43.162;20.538;2023-07-09T01:37:29;4.57;;;3.08;;
55150;SDS011;41041;43.162;20.538;2023-07-09T01:39:56;6.65;;;3.33;;
55150;SDS011;41041;43.162;20.538;2023-07-09T01:42:22;7.22;;;3.10;;
55150;SDS011;41041;43.162;20.538;2023-07-09T01:44:49;5.72;;;3.22;;
55150;SDS011;41041;43.162;20.538;2023-07-09T01:47:16;15.35;;;3.50;;
55150;SDS011;41041;43.162;20.538;2023-07-09T01:49:43;7.03;;;3.63;;
55150;SDS011;41041;43.162;20.538;2023-07-09T01:52:11;6.03;;;3.67;;
55150;SDS011;41041;43.162;20.538;2023-07-09T01:54:38;6.30;;;3.78;;
55150;SDS011;41041;43.162;20.538;2023-07-09T02:00:12;5.40;;;3.30;;
55150;SDS011;41041;43.162;20.538;2023-07-09T02:05:42;8.95;;;3.20;;
55150;SDS011;41041;43.162;20.538;2023-07-09T02:08:08;5.75;;;3.50;;
55150;SDS011;41041;43.162;20.538;2023-07-09T02:10:34;8.55;;;3.72;;
55150;SDS011;41041;43.162;20.538;2023-07-09T02:13:00;7.82;;;2.88;;
55150;SDS011;41041;43.162;20.538;2023-07-09T02:15:26;6.82;;;3.45;;
55150;SDS011;41041;43.162;20.538;2023-07-09T02:17:52;6.32;;;3.28;;
55150;SDS011;41041;43.162;20.538;2023-07-09T02:20:18;6.55;;;3.65;;
55150;SDS011;41041;43.162;20.538;2023-07-09T02:22:44;7.97;;;3.20;;
55150;SDS011;41041;43.162;20.538;2023-07-09T02:25:12;4.80;;;2.92;;
55150;SDS011;41041;43.162;20.538;2023-07-09T02:27:38;7.45;;;3.40;;
55150;SDS011;41041;43.162;20.538;2023-07-09T02:30:07;7.20;;;3.28;;
55150;SDS011;41041;43.162;20.538;2023-07-09T02:32:33;5.13;;;3.28;;
55150;SDS011;41041;43.162;20.538;2023-07-09T02:34:59;4.93;;;3.22;;
55150;SDS011;41041;43.162;20.538;2023-07-09T02:37:26;7.63;;;3.53;;
55150;SDS011;41041;43.162;20.538;2023-07-09T02:39:52;8.38;;;3.70;;
55150;SDS011;41041;43.162;20.538;2023-07-09T02:42:19;7.95;;;3.33;;
55150;SDS011;41041;43.162;20.538;2023-07-09T02:47:15;6.22;;;3.60;;
55150;SDS011;41041;43.162;20.538;2023-07-09T02:49:41;7.43;;;3.30;;
55150;SDS011;41041;43.162;20.538;2023-07-09T02:52:07;6.22;;;3.33;;
55150;SDS011;41041;43.162;20.538;2023-07-09T02:54:34;5.90;;;3.08;;
55150;SDS011;41041;43.162;20.538;2023-07-09T02:57:00;5.20;;;3.45;;
55150;SDS011;41041;43.162;20.538;2023-07-09T02:59:26;8.52;;;3.70;;
55150;SDS011;41041;43.162;20.538;2023-07-09T03:01:54;4.97;;;3.10;;
55150;SDS011;41041;43.162;20.538;2023-07-09T03:04:20;5.40;;;3.35;;
55150;SDS011;41041;43.162;20.538;2023-07-09T03:06:46;6.45;;;3.22;;
55150;SDS011;41041;43.162;20.538;2023-07-09T03:12:13;4.43;;;3.15;;
55150;SDS011;41041;43.162;20.538;2023-07-09T03:14:39;9.25;;;3.30;;
55150;SDS011;41041;43.162;20.538;2023-07-09T03:17:05;6.10;;;3.35;;
55150;SDS011;41041;43.162;20.538;2023-07-09T03:19:32;7.15;;;2.95;;
55150;SDS011;41041;43.162;20.538;2023-07-09T03:21:58;6.22;;;3.00;;
55150;SDS011;41041;43.162;20.538;2023-07-09T03:24:24;9.90;;;3.35;;
55150;SDS011;41041;43.162;20.538;2023-07-09T03:26:50;7.45;;;3.30;;
55150;SDS011;41041;43.162;20.538;2023-07-09T03:29:16;5.15;;;3.05;;
55150;SDS011;41041;43.162;20.538;2023-07-09T03:31:42;8.95;;;3.13;;
55150;SDS011;41041;43.162;20.538;2023-07-09T03:34:08;7.53;;;3.67;;
55150;SDS011;41041;43.162;20.538;2023-07-09T03:36:34;8.32;;;3.40;;
55150;SDS011;41041;43.162;20.538;2023-07-09T03:39:02;11.10;;;3.88;;
55150;SDS011;41041;43.162;20.538;2023-07-09T03:41:28;6.78;;;3.50;;
55150;SDS011;41041;43.162;20.538;2023-07-09T03:43:54;5.80;;;3.20;;
55150;SDS011;41041;43.162;20.538;2023-07-09T03:46:21;5.55;;;3.38;;
55150;SDS011;41041;43.162;20.538;2023-07-09T03:48:47;7.00;;;3.25;;
55150;SDS011;41041;43.162;20.538;2023-07-09T03:51:15;5.43;;;3.22;;
55150;SDS011;41041;43.162;20.538;2023-07-09T03:56:16;5.68;;;2.92;;
55150;SDS011;41041;43.162;20.538;2023-07-09T03:58:42;7.50;;;3.10;;
55150;SDS011;41041;43.162;20.538;2023-07-09T04:01:11;5.20;;;3.15;;
55150;SDS011;41041;43.162;20.538;2023-07-09T04:03:37;4.43;;;3.00;;
55150;SDS011;41041;43.162;20.538;2023-07-09T04:06:03;8.48;;;3.30;;
55150;SDS011;41041;43.162;20.538;2023-07-09T04:08:29;7.07;;;3.40;;
55150;SDS011;41041;43.162;20.538;2023-07-09T04:13:55;7.10;;;3.38;;
55150;SDS011;41041;43.162;20.538;2023-07-09T04:16:21;7.20;;;3.40;;
55150;SDS011;41041;43.162;20.538;2023-07-09T04:18:47;8.10;;;3.35;;
55150;SDS011;41041;43.162;20.538;2023-07-09T04:21:13;9.13;;;3.67;;
55150;SDS011;41041;43.162;20.538;2023-07-09T04:23:39;6.28;;;3.03;;
55150;SDS011;41041;43.162;20.538;2023-07-09T04:26:05;5.57;;;3.00;;
55150;SDS011;41041;43.162;20.538;2023-07-09T04:28:42;5.38;;;3.17;;
55150;SDS011;41041;43.162;20.538;2023-07-09T04:31:08;6.30;;;3.10;;
55150;SDS011;41041;43.162;20.538;2023-07-09T04:33:34;6.05;;;3.08;;
55150;SDS011;41041;43.162;20.538;2023-07-09T04:36:01;5.97;;;3.50;;
55150;SDS011;41041;43.162;20.538;2023-07-09T04:38:27;6.82;;;3.53;;
55150;SDS011;41041;43.162;20.538;2023-07-09T04:40:53;8.85;;;3.90;;
55150;SDS011;41041;43.162;20.538;2023-07-09T04:43:19;8.95;;;3.35;;
55150;SDS011;41041;43.162;20.538;2023-07-09T04:45:45;10.52;;;3.85;;
55150;SDS011;41041;43.162;20.538;2023-07-09T04:48:11;7.70;;;3.72;;
55150;SDS011;41041;43.162;20.538;2023-07-09T04:50:37;5.80;;;3.63;;
55150;SDS011;41041;43.162;20.538;2023-07-09T04:53:05;8.70;;;3.80;;
55150;SDS011;41041;43.162;20.538;2023-07-09T04:55:31;5.78;;;3.58;;
55150;SDS011;41041;43.162;20.538;2023-07-09T04:57:58;7.22;;;3.42;;
55150;SDS011;41041;43.162;20.538;2023-07-09T05:00:24;6.05;;;3.45;;
55150;SDS011;41041;43.162;20.538;2023-07-09T05:02:50;7.93;;;3.50;;
55150;SDS011;41041;43.162;20.538;2023-07-09T05:05:16;6.57;;;3.40;;
55150;SDS011;41041;43.162;20.538;2023-07-09T05:13:50;6.82;;;3.75;;
55150;SDS011;41041;43.162;20.538;2023-07-09T05:16:16;6.53;;;3.50;;
55150;SDS011;41041;43.162;20.538;2023-07-09T05:18:44;5.28;;;3.28;;
55150;SDS011;41041;43.162;20.538;2023-07-09T05:21:11;8.02;;;3.78;;
55150;SDS011;41041;43.162;20.538;2023-07-09T05:23:37;7.40;;;3.45;;
55150;SDS011;41041;43.162;20.538;2023-07-09T05:26:03;6.10;;;3.45;;
55150;SDS011;41041;43.162;20.538;2023-07-09T05:28:29;5.70;;;3.60;;
55150;SDS011;41041;43.162;20.538;2023-07-09T05:30:57;7.13;;;3.65;;
55150;SDS011;41041;43.162;20.538;2023-07-09T05:33:24;5.88;;;3.50;;
55150;SDS011;41041;43.162;20.538;2023-07-09T05:35:51;5.53;;;3.50;;
55150;SDS011;41041;43.162;20.538;2023-07-09T05:38:17;7.45;;;3.72;;
55150;SDS011;41041;43.162;20.538;2023-07-09T05:40:43;7.60;;;3.78;;
55150;SDS011;41041;43.162;20.538;2023-07-09T05:43:09;7.00;;;3.75;;
55150;SDS011;41041;43.162;20.538;2023-07-09T05:45:38;5.05;;;3.50;;
55150;SDS011;41041;43.162;20.538;2023-07-09T05:48:04;8.18;;;3.38;;
55150;SDS011;41041;43.162;20.538;2023-07-09T05:50:32;8.77;;;3.80;;
55150;SDS011;41041;43.162;20.538;2023-07-09T05:55:35;6.95;;;3.47;;
55150;SDS011;41041;43.162;20.538;2023-07-09T05:58:01;5.65;;;3.90;;
55150;SDS011;41041;43.162;20.538;2023-07-09T06:03:03;7.60;;;4.20;;
55150;SDS011;41041;43.162;20.538;2023-07-09T06:05:32;7.03;;;3.70;;
55150;SDS011;41041;43.162;20.538;2023-07-09T06:07:59;8.65;;;4.30;;
55150;SDS011;41041;43.162;20.538;2023-07-09T06:10:25;7.97;;;4.28;;
55150;SDS011;41041;43.162;20.538;2023-07-09T06:12:51;7.65;;;4.25;;
55150;SDS011;41041;43.162;20.538;2023-07-09T06:15:20;9.73;;;4.63;;
55150;SDS011;41041;43.162;20.538;2023-07-09T06:17:46;10.65;;;4.53;;
55150;SDS011;41041;43.162;20.538;2023-07-09T06:20:12;7.85;;;4.05;;
55150;SDS011;41041;43.162;20.538;2023-07-09T06:22:38;8.20;;;3.95;;
55150;SDS011;41041;43.162;20.538;2023-07-09T06:25:04;8.88;;;4.10;;
55150;SDS011;41041;43.162;20.538;2023-07-09T06:27:30;8.55;;;3.72;;
55150;SDS011;41041;43.162;20.538;2023-07-09T06:29:56;7.35;;;4.00;;
55150;SDS011;41041;43.162;20.538;2023-07-09T06:32:22;12.90;;;5.90;;
55150;SDS011;41041;43.162;20.538;2023-07-09T06:34:49;7.03;;;3.70;;
55150;SDS011;41041;43.162;20.538;2023-07-09T06:37:15;7.53;;;3.67;;
55150;SDS011;41041;43.162;20.538;2023-07-09T06:39:41;8.70;;;3.63;;
55150;SDS011;41041;43.162;20.538;2023-07-09T06:42:07;7.90;;;4.00;;
55150;SDS011;41041;43.162;20.538;2023-07-09T06:44:34;6.38;;;3.97;;
55150;SDS011;41041;43.162;20.538;2023-07-09T06:47:00;5.28;;;3.70;;
55150;SDS011;41041;43.162;20.538;2023-07-09T06:49:27;5.75;;;3.55;;
55150;SDS011;41041;43.162;20.538;2023-07-09T06:51:58;6.95;;;3.83;;
55150;SDS011;41041;43.162;20.538;2023-07-09T06:54:24;11.57;;;4.00;;
55150;SDS011;41041;43.162;20.538;2023-07-09T06:56:50;8.30;;;3.67;;
55150;SDS011;41041;43.162;20.538;2023-07-09T06:59:16;8.13;;;3.75;;
55150;SDS011;41041;43.162;20.538;2023-07-09T07:01:42;6.15;;;3.53;;
55150;SDS011;41041;43.162;20.538;2023-07-09T07:04:08;6.00;;;3.65;;
55150;SDS011;41041;43.162;20.538;2023-07-09T07:06:34;9.10;;;3.42;;
55150;SDS011;41041;43.162;20.538;2023-07-09T07:09:00;5.97;;;3.75;;
55150;SDS011;41041;43.162;20.538;2023-07-09T07:11:25;5.18;;;3.40;;
55150;SDS011;41041;43.162;20.538;2023-07-09T07:13:55;5.32;;;3.20;;
55150;SDS011;41041;43.162;20.538;2023-07-09T07:16:20;4.97;;;3.22;;
55150;SDS011;41041;43.162;20.538;2023-07-09T07:18:46;7.95;;;3.75;;
55150;SDS011;41041;43.162;20.538;2023-07-09T07:21:12;13.18;;;4.07;;
55150;SDS011;41041;43.162;20.538;2023-07-09T07:23:38;9.40;;;3.40;;
55150;SDS011;41041;43.162;20.538;2023-07-09T07:26:04;10.75;;;3.90;;
55150;SDS011;41041;43.162;20.538;2023-07-09T07:28:30;9.27;;;3.60;;
55150;SDS011;41041;43.162;20.538;2023-07-09T07:31:06;7.05;;;3.47;;
55150;SDS011;41041;43.162;20.538;2023-07-09T07:33:40;8.90;;;3.70;;
55150;SDS011;41041;43.162;20.538;2023-07-09T07:36:08;6.10;;;3.10;;
55150;SDS011;41041;43.162;20.538;2023-07-09T07:38:35;8.75;;;3.60;;
55150;SDS011;41041;43.162;20.538;2023-07-09T07:41:01;6.93;;;3.38;;
55150;SDS011;41041;43.162;20.538;2023-07-09T07:43:27;6.97;;;3.30;;
55150;SDS011;41041;43.162;20.538;2023-07-09T07:45:53;6.25;;;3.40;;
55150;SDS011;41041;43.162;20.538;2023-07-09T07:48:20;7.65;;;3.72;;
55150;SDS011;41041;43.162;20.538;2023-07-09T07:50:46;5.13;;;3.45;;
55150;SDS011;41041;43.162;20.538;2023-07-09T07:53:13;7.47;;;3.15;;
55150;SDS011;41041;43.162;20.538;2023-07-09T07:58:50;5.97;;;3.47;;
55150;SDS011;41041;43.162;20.538;2023-07-09T08:01:30;6.35;;;3.17;;
55150;SDS011;41041;43.162;20.538;2023-07-09T08:03:56;6.50;;;3.35;;
55150;SDS011;41041;43.162;20.538;2023-07-09T08:06:21;7.60;;;3.70;;
55150;SDS011;41041;43.162;20.538;2023-07-09T08:08:47;7.57;;;3.67;;
55150;SDS011;41041;43.162;20.538;2023-07-09T08:11:13;7.45;;;3.20;;
55150;SDS011;41041;43.162;20.538;2023-07-09T08:13:40;5.82;;;3.05;;
55150;SDS011;41041;43.162;20.538;2023-07-09T08:16:06;8.30;;;3.28;;
55150;SDS011;41041;43.162;20.538;2023-07-09T08:18:33;5.47;;;3.25;;
55150;SDS011;41041;43.162;20.538;2023-07-09T08:24:05;5.45;;;3.20;;
55150;SDS011;41041;43.162;20.538;2023-07-09T08:26:31;6.22;;;2.92;;
55150;SDS011;41041;43.162;20.538;2023-07-09T08:28:57;7.68;;;3.63;;
55150;SDS011;41041;43.162;20.538;2023-07-09T08:31:23;3.92;;;2.72;;
55150;SDS011;41041;43.162;20.538;2023-07-09T08:37:11;4.72;;;2.47;;
55150;SDS011;41041;43.162;20.538;2023-07-09T08:39:37;5.47;;;2.53;;
55150;SDS011;41041;43.162;20.538;2023-07-09T08:42:04;3.92;;;2.53;;
55150;SDS011;41041;43.162;20.538;2023-07-09T08:50:10;4.43;;;2.50;;
55150;SDS011;41041;43.162;20.538;2023-07-09T08:52:39;5.35;;;2.20;;
55150;SDS011;41041;43.162;20.538;2023-07-09T08:55:08;5.18;;;2.50;;
55150;SDS011;41041;43.162;20.538;2023-07-09T08:57:37;6.20;;;2.45;;
55150;SDS011;41041;43.162;20.538;2023-07-09T09:00:16;4.72;;;2.05;;
55150;SDS011;41041;43.162;20.538;2023-07-09T09:02:55;3.20;;;2.20;;
55150;SDS011;41041;43.162;20.538;2023-07-09T09:05:24;5.07;;;2.53;;
55150;SDS011;41041;43.162;20.538;2023-07-09T09:10:56;4.47;;;2.20;;
55150;SDS011;41041;43.162;20.538;2023-07-09T09:13:50;4.13;;;2.00;;
55150;SDS011;41041;43.162;20.538;2023-07-09T09:16:22;3.15;;;2.10;;
55150;SDS011;41041;43.162;20.538;2023-07-09T09:18:49;5.13;;;2.22;;
55150;SDS011;41041;43.162;20.538;2023-07-09T09:23:52;4.78;;;2.30;;
55150;SDS011;41041;43.162;20.538;2023-07-09T09:26:26;5.25;;;2.20;;
55150;SDS011;41041;43.162;20.538;2023-07-09T09:28:57;4.50;;;2.20;;
55150;SDS011;41041;43.162;20.538;2023-07-09T09:31:24;3.38;;;2.20;;
55150;SDS011;41041;43.162;20.538;2023-07-09T09:33:54;2.90;;;2.17;;
55150;SDS011;41041;43.162;20.538;2023-07-09T09:36:21;4.43;;;2.30;;
55150;SDS011;41041;43.162;20.538;2023-07-09T09:38:50;4.82;;;2.45;;
55150;SDS011;41041;43.162;20.538;2023-07-09T09:41:21;4.38;;;2.00;;
55150;SDS011;41041;43.162;20.538;2023-07-09T09:43:51;5.07;;;2.30;;
55150;SDS011;41041;43.162;20.538;2023-07-09T09:49:12;4.53;;;2.20;;
55150;SDS011;41041;43.162;20.538;2023-07-09T09:51:39;5.07;;;2.58;;
55150;SDS011;41041;43.162;20.538;2023-07-09T09:57:30;4.97;;;2.25;;
55150;SDS011;41041;43.162;20.538;2023-07-09T09:59:56;5.43;;;2.30;;
55150;SDS011;41041;43.162;20.538;2023-07-09T10:02:24;3.42;;;2.60;;
55150;SDS011;41041;43.162;20.538;2023-07-09T10:04:50;7.75;;;2.90;;
55150;SDS011;41041;43.162;20.538;2023-07-09T10:07:34;6.30;;;2.67;;
55150;SDS011;41041;43.162;20.538;2023-07-09T10:13:23;5.35;;;2.47;;
55150;SDS011;41041;43.162;20.538;2023-07-09T10:15:59;3.42;;;2.35;;
55150;SDS011;41041;43.162;20.538;2023-07-09T10:27:03;6.00;;;2.72;;
55150;SDS011;41041;43.162;20.538;2023-07-09T10:30:01;6.05;;;2.58;;
55150;SDS011;41041;43.162;20.538;2023-07-09T10:35:49;6.30;;;2.38;;
55150;SDS011;41041;43.162;20.538;2023-07-09T10:41:30;3.60;;;2.20;;
55150;SDS011;41041;43.162;20.538;2023-07-09T10:46:45;3.15;;;2.00;;
55150;SDS011;41041;43.162;20.538;2023-07-09T10:49:15;6.22;;;2.33;;
55150;SDS011;41041;43.162;20.538;2023-07-09T10:51:53;4.25;;;2.22;;
55150;SDS011;41041;43.162;20.538;2023-07-09T10:54:32;5.28;;;2.30;;
55150;SDS011;41041;43.162;20.538;2023-07-09T10:59:36;4.47;;;2.22;;
55150;SDS011;41041;43.162;20.538;2023-07-09T11:02:24;4.95;;;2.10;;
55150;SDS011;41041;43.162;20.538;2023-07-09T11:04:57;4.78;;;2.10;;
55150;SDS011;41041;43.162;20.538;2023-07-09T11:16:27;3.22;;;1.85;;
55150;SDS011;41041;43.162;20.538;2023-07-09T11:19:01;2.67;;;1.80;;
55150;SDS011;41041;43.162;20.538;2023-07-09T11:24:47;4.55;;;1.83;;
55150;SDS011;41041;43.162;20.538;2023-07-09T11:27:19;5.00;;;1.85;;
55150;SDS011;41041;43.162;20.538;2023-07-09T11:29:51;3.67;;;2.10;;
55150;SDS011;41041;43.162;20.538;2023-07-09T11:32:22;7.05;;;2.10;;
55150;SDS011;41041;43.162;20.538;2023-07-09T11:34:51;3.88;;;2.03;;
55150;SDS011;41041;43.162;20.538;2023-07-09T11:37:17;2.47;;;1.60;;
55150;SDS011;41041;43.162;20.538;2023-07-09T11:39:44;7.50;;;1.90;;
55150;SDS011;41041;43.162;20.538;2023-07-09T11:42:24;3.55;;;1.95;;
55150;SDS011;41041;43.162;20.538;2023-07-09T11:47:40;3.45;;;1.80;;
55150;SDS011;41041;43.162;20.538;2023-07-09T11:50:23;7.45;;;1.88;;
55150;SDS011;41041;43.162;20.538;2023-07-09T11:58:28;4.40;;;1.80;;
55150;SDS011;41041;43.162;20.538;2023-07-09T12:00:54;5.07;;;1.70;;
55150;SDS011;41041;43.162;20.538;2023-07-09T12:03:38;3.33;;;1.80;;
55150;SDS011;41041;43.162;20.538;2023-07-09T12:06:23;5.00;;;1.85;;
55150;SDS011;41041;43.162;20.538;2023-07-09T12:08:52;3.70;;;1.75;;
55150;SDS011;41041;43.162;20.538;2023-07-09T12:11:26;3.17;;;1.70;;
55150;SDS011;41041;43.162;20.538;2023-07-09T12:13:54;4.68;;;1.70;;
55150;SDS011;41041;43.162;20.538;2023-07-09T12:16:47;3.30;;;1.90;;
55150;SDS011;41041;43.162;20.538;2023-07-09T12:22:37;2.58;;;1.70;;
55150;SDS011;41041;43.162;20.538;2023-07-09T12:25:07;2.28;;;1.42;;
55150;SDS011;41041;43.162;20.538;2023-07-09T12:27:45;4.30;;;1.70;;
55150;SDS011;41041;43.162;20.538;2023-07-09T12:30:11;5.57;;;1.85;;
55150;SDS011;41041;43.162;20.538;2023-07-09T12:32:45;2.65;;;1.73;;
55150;SDS011;41041;43.162;20.538;2023-07-09T12:35:17;5.05;;;1.65;;
55150;SDS011;41041;43.162;20.538;2023-07-09T12:37:44;4.50;;;1.75;;
55150;SDS011;41041;43.162;20.538;2023-07-09T12:40:14;2.50;;;1.67;;
55150;SDS011;41041;43.162;20.538;2023-07-09T12:42:41;3.20;;;1.98;;
55150;SDS011;41041;43.162;20.538;2023-07-09T12:45:18;3.85;;;1.85;;
55150;SDS011;41041;43.162;20.538;2023-07-09T12:47:48;5.47;;;1.92;;
55150;SDS011;41041;43.162;20.538;2023-07-09T12:50:26;3.55;;;1.92;;
55150;SDS011;41041;43.162;20.538;2023-07-09T12:55:44;6.57;;;1.80;;
55150;SDS011;41041;43.162;20.538;2023-07-09T12:58:19;2.72;;;1.70;;
55150;SDS011;41041;43.162;20.538;2023-07-09T13:00:49;7.40;;;1.90;;
55150;SDS011;41041;43.162;20.538;2023-07-09T13:05:52;4.38;;;1.90;;
55150;SDS011;41041;43.162;20.538;2023-07-09T13:08:19;2.67;;;1.95;;
55150;SDS011;41041;43.162;20.538;2023-07-09T13:10:46;6.60;;;1.85;;
55150;SDS011;41041;43.162;20.538;2023-07-09T13:13:17;3.67;;;2.05;;
55150;SDS011;41041;43.162;20.538;2023-07-09T13:15:46;3.50;;;1.70;;
55150;SDS011;41041;43.162;20.538;2023-07-09T13:18:16;4.60;;;1.98;;
55150;SDS011;41041;43.162;20.538;2023-07-09T13:20:44;3.97;;;1.88;;
55150;SDS011;41041;43.162;20.538;2023-07-09T13:23:16;2.72;;;1.83;;
55150;SDS011;41041;43.162;20.538;2023-07-09T13:25:42;7.40;;;1.80;;
55150;SDS011;41041;43.162;20.538;2023-07-09T13:28:19;2.40;;;1.52;;
55150;SDS011;41041;43.162;20.538;2023-07-09T13:30:46;7.32;;;3.40;;
55150;SDS011;41041;43.162;20.538;2023-07-09T13:33:13;3.50;;;1.80;;
55150;SDS011;41041;43.162;20.538;2023-07-09T13:35:49;5.82;;;1.70;;
55150;SDS011;41041;43.162;20.538;2023-07-09T13:38:19;3.17;;;1.88;;
55150;SDS011;41041;43.162;20.538;2023-07-09T13:40:48;5.35;;;1.70;;
55150;SDS011;41041;43.162;20.538;2023-07-09T13:43:19;3.60;;;1.90;;
55150;SDS011;41041;43.162;20.538;2023-07-09T13:45:51;3.10;;;2.08;;
55150;SDS011;41041;43.162;20.538;2023-07-09T13:50:48;2.70;;;1.65;;
55150;SDS011;41041;43.162;20.538;2023-07-09T13:53:17;3.65;;;2.20;;
55150;SDS011;41041;43.162;20.538;2023-07-09T13:55:48;2.08;;;1.50;;
55150;SDS011;41041;43.162;20.538;2023-07-09T13:58:16;2.92;;;1.60;;
55150;SDS011;41041;43.162;20.538;2023-07-09T14:00:44;5.80;;;1.70;;
55150;SDS011;41041;43.162;20.538;2023-07-09T14:05:43;3.00;;;1.60;;
55150;SDS011;41041;43.162;20.538;2023-07-09T14:08:10;7.50;;;1.85;;
55150;SDS011;41041;43.162;20.538;2023-07-09T14:13:24;3.80;;;1.60;;
55150;SDS011;41041;43.162;20.538;2023-07-09T14:15:51;3.95;;;1.70;;
55150;SDS011;41041;43.162;20.538;2023-07-09T14:18:22;4.35;;;1.60;;
55150;SDS011;41041;43.162;20.538;2023-07-09T14:20:49;2.85;;;1.45;;
55150;SDS011;41041;43.162;20.538;2023-07-09T14:23:21;2.47;;;1.50;;
55150;SDS011;41041;43.162;20.538;2023-07-09T14:25:48;2.42;;;1.58;;
55150;SDS011;41041;43.162;20.538;2023-07-09T14:28:20;4.10;;;1.40;;
55150;SDS011;41041;43.162;20.538;2023-07-09T14:33:50;3.28;;;1.58;;
55150;SDS011;41041;43.162;20.538;2023-07-09T14:36:16;2.55;;;1.20;;
55150;SDS011;41041;43.162;20.538;2023-07-09T14:38:42;3.72;;;1.20;;
55150;SDS011;41041;43.162;20.538;2023-07-09T14:41:17;3.50;;;1.88;;
55150;SDS011;41041;43.162;20.538;2023-07-09T14:43:46;4.70;;;1.50;;
55150;SDS011;41041;43.162;20.538;2023-07-09T14:46:12;2.22;;;1.20;;
55150;SDS011;41041;43.162;20.538;2023-07-09T14:48:37;2.55;;;1.45;;
55150;SDS011;41041;43.162;20.538;2023-07-09T14:51:10;2.20;;;1.23;;
55150;SDS011;41041;43.162;20.538;2023-07-09T14:53:41;2.20;;;1.30;;
55150;SDS011;41041;43.162;20.538;2023-07-09T14:56:07;2.20;;;1.25;;
55150;SDS011;41041;43.162;20.538;2023-07-09T14:58:34;2.67;;;1.38;;
55150;SDS011;41041;43.162;20.538;2023-07-09T15:04:27;4.40;;;1.40;;
55150;SDS011;41041;43.162;20.538;2023-07-09T15:07:04;3.35;;;1.48;;
55150;SDS011;41041;43.162;20.538;2023-07-09T15:09:35;3.45;;;1.58;;
55150;SDS011;41041;43.162;20.538;2023-07-09T15:12:02;2.53;;;1.25;;
55150;SDS011;41041;43.162;20.538;2023-07-09T15:14:28;3.53;;;1.55;;
55150;SDS011;41041;43.162;20.538;2023-07-09T15:16:54;3.85;;;1.55;;
55150;SDS011;41041;43.162;20.538;2023-07-09T15:19:21;3.53;;;1.48;;
55150;SDS011;41041;43.162;20.538;2023-07-09T15:21:47;3.30;;;1.30;;
55150;SDS011;41041;43.162;20.538;2023-07-09T15:24:27;2.30;;;1.30;;
55150;SDS011;41041;43.162;20.538;2023-07-09T15:26:56;2.70;;;1.30;;
55150;SDS011;41041;43.162;20.538;2023-07-09T15:29:22;1.95;;;1.30;;
55150;SDS011;41041;43.162;20.538;2023-07-09T15:31:52;4.97;;;1.42;;
55150;SDS011;41041;43.162;20.538;2023-07-09T15:34:18;2.45;;;1.40;;
55150;SDS011;41041;43.162;20.538;2023-07-09T15:36:45;2.65;;;1.42;;
55150;SDS011;41041;43.162;20.538;2023-07-09T15:39:13;2.35;;;1.50;;
55150;SDS011;41041;43.162;20.538;2023-07-09T15:41:39;3.60;;;1.23;;
55150;SDS011;41041;43.162;20.538;2023-07-09T15:44:08;3.72;;;1.45;;
55150;SDS011;41041;43.162;20.538;2023-07-09T15:46:38;1.98;;;1.25;;
55150;SDS011;41041;43.162;20.538;2023-07-09T15:49:10;4.87;;;1.77;;
55150;SDS011;41041;43.162;20.538;2023-07-09T15:51:38;7.25;;;1.50;;
55150;SDS011;41041;43.162;20.538;2023-07-09T15:54:37;3.75;;;1.35;;
55150;SDS011;41041;43.162;20.538;2023-07-09T15:56:56;2.50;;;1.35;;
55150;SDS011;41041;43.162;20.538;2023-07-09T15:59:32;2.35;;;1.40;;
55150;SDS011;41041;43.162;20.538;2023-07-09T16:02:09;3.78;;;1.48;;
55150;SDS011;41041;43.162;20.538;2023-07-09T16:04:36;2.58;;;1.40;;
55150;SDS011;41041;43.162;20.538;2023-07-09T16:07:02;3.13;;;1.48;;
55150;SDS011;41041;43.162;20.538;2023-07-09T16:09:28;3.55;;;1.38;;
55150;SDS011;41041;43.162;20.538;2023-07-09T16:14:38;2.92;;;1.42;;
55150;SDS011;41041;43.162;20.538;2023-07-09T16:17:08;7.45;;;1.63;;
55150;SDS011;41041;43.162;20.538;2023-07-09T16:19:35;4.82;;;1.48;;
55150;SDS011;41041;43.162;20.538;2023-07-09T16:22:02;2.53;;;1.55;;
55150;SDS011;41041;43.162;20.538;2023-07-09T16:24:30;3.97;;;1.50;;
55150;SDS011;41041;43.162;20.538;2023-07-09T16:26:56;3.05;;;1.40;;
55150;SDS011;41041;43.162;20.538;2023-07-09T16:29:27;2.35;;;1.40;;
55150;SDS011;41041;43.162;20.538;2023-07-09T16:31:54;5.85;;;1.65;;
55150;SDS011;41041;43.162;20.538;2023-07-09T16:34:23;4.25;;;1.45;;
55150;SDS011;41041;43.162;20.538;2023-07-09T16:36:49;2.70;;;1.33;;
55150;SDS011;41041;43.162;20.538;2023-07-09T16:41:49;3.15;;;1.50;;
55150;SDS011;41041;43.162;20.538;2023-07-09T16:44:15;2.70;;;1.50;;
55150;SDS011;41041;43.162;20.538;2023-07-09T16:46:51;4.22;;;1.90;;
55150;SDS011;41041;43.162;20.538;2023-07-09T16:49:32;4.63;;;1.80;;
55150;SDS011;41041;43.162;20.538;2023-07-09T16:52:20;3.70;;;1.58;;
55150;SDS011;41041;43.162;20.538;2023-07-09T16:54:49;4.45;;;1.33;;
55150;SDS011;41041;43.162;20.538;2023-07-09T16:57:19;2.60;;;1.60;;
55150;SDS011;41041;43.162;20.538;2023-07-09T17:02:22;3.10;;;1.58;;
55150;SDS011;41041;43.162;20.538;2023-07-09T17:04:49;3.25;;;1.75;;
55150;SDS011;41041;43.162;20.538;2023-07-09T17:07:15;3.17;;;2.05;;
55150;SDS011;41041;43.162;20.538;2023-07-09T17:09:42;3.72;;;1.80;;